createdAt,value
2023-04-18T00:00:36.832Z,5.47
2023-04-18T00:03:05.460Z,5.70
2023-04-18T00:05:32.462Z,6.45
2023-04-18T00:07:59.318Z,5.28
2023-04-18T00:10:26.337Z,6.18
2023-04-18T00:12:54.342Z,6.93
2023-04-18T00:15:21.049Z,7.25
2023-04-18T00:17:49.327Z,6.95
2023-04-18T00:20:16.104Z,5.93
2023-04-18T00:22:47.474Z,6.50
2023-04-18T00:25:15.987Z,6.13
2023-04-18T00:27:43.349Z,6.25
2023-04-18T00:30:11.064Z,7.47
2023-04-18T00:32:38.086Z,6.88
2023-04-18T00:35:07.216Z,8.75
2023-04-18T00:37:35.662Z,5.90
2023-04-18T00:40:02.521Z,6.93
2023-04-18T00:42:29.483Z,6.78
2023-04-18T00:44:56.823Z,5.82
2023-04-18T00:47:27.327Z,6.13
2023-04-18T00:49:55.310Z,7.93
2023-04-18T00:52:27.317Z,6.53
2023-04-18T00:54:54.724Z,5.93
2023-04-18T00:57:22.361Z,6.38
2023-04-18T00:59:52.019Z,5.18
2023-04-18T01:02:19.381Z,5.57
2023-04-18T01:04:46.646Z,7.10
2023-04-18T01:07:15.163Z,6.03
2023-04-18T01:09:44.090Z,6.10
2023-04-18T01:12:12.151Z,7.65
2023-04-18T01:14:42.115Z,5.00
2023-04-18T01:17:12.869Z,6.60
2023-04-18T01:19:39.839Z,8.07
2023-04-18T01:22:09.197Z,6.25
2023-04-18T01:24:37.403Z,6.78
2023-04-18T01:27:04.507Z,5.57
2023-04-18T01:29:31.440Z,5.40
2023-04-18T01:32:02.727Z,6.38
2023-04-18T01:34:29.537Z,7.40
2023-04-18T01:36:56.558Z,5.55
2023-04-18T01:39:23.604Z,5.55
2023-04-18T01:41:51.896Z,5.80
2023-04-18T01:44:18.626Z,6.68
2023-04-18T01:46:45.537Z,6.18
2023-04-18T01:49:12.398Z,6.85
2023-04-18T01:51:39.520Z,6.35
2023-04-18T01:54:06.730Z,5.65
2023-04-18T01:56:33.616Z,5.15
2023-04-18T01:59:01.891Z,5.80
2023-04-18T02:01:28.777Z,6.32
2023-04-18T02:03:56.026Z,6.78
2023-04-18T02:06:27.516Z,6.18
2023-04-18T02:08:54.321Z,4.97
2023-04-18T02:11:22.476Z,5.28
2023-04-18T02:13:50.528Z,6.43
2023-04-18T02:16:18.908Z,5.60
2023-04-18T02:18:45.926Z,5.60
2023-04-18T02:21:12.883Z,5.78
2023-04-18T02:23:39.817Z,5.45
2023-04-18T02:26:07.070Z,4.72
2023-04-18T02:28:33.950Z,4.95
2023-04-18T02:31:01.210Z,6.07
2023-04-18T02:33:29.447Z,6.70
2023-04-18T02:35:56.373Z,6.45
2023-04-18T02:38:23.401Z,5.45
2023-04-18T02:40:51.491Z,5.38
2023-04-18T02:43:18.218Z,8.20
2023-04-18T02:45:45.304Z,5.57
2023-04-18T02:48:12.302Z,6.55
2023-04-18T02:50:41.009Z,5.40
2023-04-18T02:53:07.842Z,6.82
2023-04-18T02:55:34.713Z,7.53
2023-04-18T02:58:02.394Z,7.57
2023-04-18T03:00:29.620Z,7.35
2023-04-18T03:02:56.693Z,5.95
2023-04-18T03:05:23.832Z,7.50
2023-04-18T03:07:51.998Z,7.30
2023-04-18T03:10:19.175Z,6.35
2023-04-18T03:12:47.747Z,8.13
2023-04-18T03:15:14.468Z,9.30
2023-04-18T03:17:42.620Z,9.02
2023-04-18T03:20:11.376Z,7.03
2023-04-18T03:22:38.287Z,6.82
2023-04-18T03:25:08.287Z,7.35
2023-04-18T03:27:35.269Z,6.32
2023-04-18T03:30:02.420Z,5.38
2023-04-18T03:32:33.816Z,6.00
2023-04-18T03:35:01.054Z,5.55
2023-04-18T03:37:28.185Z,7.60
2023-04-18T03:39:54.995Z,7.75
2023-04-18T03:42:23.242Z,6.38
2023-04-18T03:44:50.068Z,7.13
2023-04-18T03:47:18.387Z,6.47
2023-04-18T03:49:45.351Z,6.00
2023-04-18T03:52:12.090Z,6.15
2023-04-18T03:54:38.836Z,6.80
2023-04-18T03:57:05.792Z,8.40
2023-04-18T03:59:34.357Z,8.65
2023-04-18T04:02:01.683Z,7.18
2023-04-18T04:04:31.199Z,8.52
2023-04-18T04:06:58.173Z,6.72
2023-04-18T04:09:24.974Z,6.72
2023-04-18T04:11:52.086Z,8.07
2023-04-18T04:14:18.759Z,7.50
2023-04-18T04:16:47.100Z,7.20
2023-04-18T04:19:15.208Z,6.93
2023-04-18T04:21:42.174Z,10.00
2023-04-18T04:24:09.585Z,7.47
2023-04-18T04:26:36.491Z,6.95
2023-04-18T04:29:06.169Z,7.07
2023-04-18T04:31:33.111Z,7.40
2023-04-18T04:34:02.144Z,6.22
2023-04-18T04:36:29.228Z,8.27
2023-04-18T04:38:55.973Z,7.57
2023-04-18T04:41:25.521Z,6.63
2023-04-18T04:43:56.327Z,6.40
2023-04-18T04:46:23.984Z,6.18
2023-04-18T04:48:54.446Z,6.25
2023-04-18T04:51:25.908Z,8.02
2023-04-18T04:53:52.736Z,6.57
2023-04-18T04:56:19.794Z,7.53
2023-04-18T04:58:47.774Z,6.45
2023-04-18T05:01:14.978Z,7.85
2023-04-18T05:03:42.239Z,7.72
2023-04-18T05:06:09.728Z,5.82
2023-04-18T05:08:39.831Z,6.28
2023-04-18T05:11:06.672Z,7.55
2023-04-18T05:13:33.431Z,8.00
2023-04-18T05:16:00.257Z,8.23
2023-04-18T05:18:27.096Z,8.63
2023-04-18T05:20:54.264Z,7.57
2023-04-18T05:23:22.817Z,6.97
2023-04-18T05:25:51.509Z,4.80
2023-04-18T05:28:18.262Z,10.02
2023-04-18T05:30:45.313Z,7.40
2023-04-18T05:33:14.597Z,9.18
2023-04-18T05:35:41.346Z,8.40
2023-04-18T05:38:09.521Z,7.07
2023-04-18T05:40:36.318Z,7.32
2023-04-18T05:43:07.575Z,6.90
2023-04-18T05:45:34.479Z,6.80
2023-04-18T05:48:01.283Z,6.78
2023-04-18T05:50:28.293Z,7.70
2023-04-18T05:52:55.023Z,7.40
2023-04-18T05:55:21.794Z,6.18
2023-04-18T05:57:48.548Z,6.47
2023-04-18T06:00:17.708Z,6.07
2023-04-18T06:02:44.607Z,7.68
2023-04-18T06:05:13.299Z,6.60
2023-04-18T06:07:40.635Z,7.60
2023-04-18T06:10:11.174Z,5.55
2023-04-18T06:12:39.458Z,7.10
2023-04-18T06:15:07.598Z,7.25
2023-04-18T06:17:36.645Z,7.70
2023-04-18T06:20:07.967Z,5.38
2023-04-18T06:22:34.825Z,8.00
2023-04-18T06:25:01.695Z,6.40
2023-04-18T06:27:31.456Z,7.38
2023-04-18T06:29:59.218Z,6.45
2023-04-18T06:32:26.173Z,6.15
2023-04-18T06:34:54.473Z,5.88
2023-04-18T06:37:21.697Z,5.78
2023-04-18T06:39:48.407Z,6.10
2023-04-18T06:42:15.216Z,6.40
2023-04-18T06:44:43.221Z,6.68
2023-04-18T06:47:10.820Z,5.75
2023-04-18T06:49:37.688Z,7.38
2023-04-18T06:52:06.100Z,6.85
2023-04-18T06:54:32.995Z,7.93
2023-04-18T06:57:03.607Z,6.75
2023-04-18T06:59:30.793Z,4.97
2023-04-18T07:01:57.642Z,6.60
2023-04-18T07:04:24.778Z,5.72
2023-04-18T07:06:51.981Z,4.82
2023-04-18T07:09:24.945Z,5.60
2023-04-18T07:11:52.702Z,6.25
2023-04-18T07:14:21.964Z,4.70
2023-04-18T07:16:49.907Z,5.50
2023-04-18T07:19:16.755Z,4.25
2023-04-18T07:21:43.887Z,4.40
2023-04-18T07:24:13.359Z,5.00
2023-04-18T07:26:41.859Z,5.43
2023-04-18T07:29:14.015Z,5.40
2023-04-18T07:31:41.209Z,6.82
2023-04-18T07:34:09.207Z,4.60
2023-04-18T07:36:36.850Z,5.88
2023-04-18T07:39:03.807Z,5.32
2023-04-18T07:41:32.197Z,6.55
2023-04-18T07:44:00.830Z,6.10
2023-04-18T07:46:28.118Z,4.63
2023-04-18T07:48:55.193Z,5.13
2023-04-18T07:51:23.339Z,4.47
2023-04-18T07:53:50.255Z,4.07
2023-04-18T07:56:17.434Z,4.25
2023-04-18T07:58:45.643Z,5.18
2023-04-18T08:01:18.398Z,4.65
2023-04-18T08:03:46.950Z,4.82
2023-04-18T08:06:14.287Z,4.93
2023-04-18T08:08:41.200Z,5.82
2023-04-18T08:11:08.039Z,4.82
2023-04-18T08:13:34.892Z,5.25
2023-04-18T08:16:03.293Z,5.28
2023-04-18T08:18:31.604Z,4.43
2023-04-18T08:20:58.360Z,5.03
2023-04-18T08:23:25.923Z,5.57
2023-04-18T08:25:53.115Z,4.80
2023-04-18T08:28:20.122Z,4.35
2023-04-18T08:30:49.197Z,4.32
2023-04-18T08:33:16.238Z,5.28
2023-04-18T08:35:44.505Z,5.80
2023-04-18T08:38:11.315Z,5.57
2023-04-18T08:40:49.434Z,3.63
2023-04-18T08:43:16.748Z,3.55
2023-04-18T08:45:44.837Z,4.68
2023-04-18T08:48:13.246Z,5.10
2023-04-18T08:50:40.798Z,4.88
2023-04-18T08:53:11.079Z,4.50
2023-04-18T08:55:42.210Z,4.55
2023-04-18T08:58:12.563Z,4.47
2023-04-18T09:00:39.430Z,4.68
2023-04-18T09:03:07.463Z,5.78
2023-04-18T09:05:35.759Z,5.05
2023-04-18T09:08:24.420Z,5.00
2023-04-18T09:10:51.763Z,6.35
2023-04-18T09:13:38.808Z,4.18
2023-04-18T09:16:06.487Z,4.93
2023-04-18T09:18:34.731Z,5.00
2023-04-18T09:21:18.674Z,4.88
2023-04-18T09:23:50.863Z,4.13
2023-04-18T09:26:35.744Z,4.40
2023-04-18T09:29:03.320Z,4.25
2023-04-18T09:31:30.390Z,3.38
2023-04-18T09:33:58.479Z,3.60
2023-04-18T09:36:31.265Z,5.25
2023-04-18T09:39:02.194Z,4.20
2023-04-18T09:41:30.578Z,4.28
2023-04-18T09:44:13.200Z,5.63
2023-04-18T09:46:46.589Z,4.15
2023-04-18T09:49:18.367Z,4.20
2023-04-18T09:51:46.146Z,4.57
2023-04-18T09:54:16.828Z,4.50
2023-04-18T09:56:45.253Z,3.35
2023-04-18T09:59:15.317Z,4.47
2023-04-18T10:01:47.348Z,6.30
2023-04-18T10:04:16.965Z,4.93
2023-04-18T10:06:46.565Z,4.32
2023-04-18T10:09:17.068Z,3.63
2023-04-18T10:11:47.217Z,4.00
2023-04-18T10:14:16.270Z,4.57
2023-04-18T10:16:45.805Z,4.18
2023-04-18T10:19:24.934Z,5.90
2023-04-18T10:21:53.280Z,5.35
2023-04-18T10:24:50.578Z,3.92
2023-04-18T10:27:18.623Z,3.90
2023-04-18T10:29:51.247Z,4.25
2023-04-18T10:32:19.573Z,4.05
2023-04-18T10:34:49.327Z,4.13
2023-04-18T10:37:18.034Z,4.78
2023-04-18T10:39:57.507Z,4.60
2023-04-18T10:42:57.653Z,5.25
2023-04-18T10:45:26.171Z,4.20
2023-04-18T10:48:30.182Z,5.68
2023-04-18T10:51:17.164Z,7.70
2023-04-18T10:53:51.070Z,5.35
2023-04-18T10:56:20.500Z,4.38
2023-04-18T10:58:51.250Z,4.53
2023-04-18T11:01:27.064Z,4.75
2023-04-18T11:03:56.693Z,5.53
2023-04-18T11:06:27.858Z,4.07
2023-04-18T11:09:09.308Z,4.15
2023-04-18T11:11:36.051Z,5.15
2023-04-18T11:14:02.818Z,4.32
2023-04-18T11:16:39.917Z,5.10
2023-04-18T11:19:20.370Z,5.65
2023-04-18T11:21:47.291Z,5.68
2023-04-18T11:24:21.787Z,4.40
2023-04-18T11:26:48.756Z,6.15
2023-04-18T11:29:17.494Z,5.05
2023-04-18T11:31:50.383Z,5.13
2023-04-18T11:34:19.986Z,5.47
2023-04-18T11:36:50.389Z,6.47
2023-04-18T11:39:17.265Z,5.05
2023-04-18T11:41:50.272Z,4.95
2023-04-18T11:44:17.734Z,5.72
2023-04-18T11:46:47.720Z,5.38
2023-04-18T11:49:33.922Z,5.03
2023-04-18T11:52:01.583Z,4.75
2023-04-18T11:54:39.715Z,6.22
2023-04-18T11:57:07.462Z,5.32
2023-04-18T11:59:34.343Z,5.75
2023-04-18T12:02:15.443Z,5.85
2023-04-18T12:04:56.223Z,4.63
2023-04-18T12:07:35.118Z,4.97
2023-04-18T12:10:02.553Z,4.68
2023-04-18T12:12:29.346Z,6.18
2023-04-18T12:15:00.574Z,5.50
2023-04-18T12:17:27.750Z,5.05
2023-04-18T12:19:55.862Z,5.60
2023-04-18T12:22:38.577Z,6.47
2023-04-18T12:25:20.445Z,5.28
2023-04-18T12:27:53.604Z,6.72
2023-04-18T12:30:22.142Z,6.50
2023-04-18T12:32:50.791Z,6.18
2023-04-18T12:35:20.866Z,6.88
2023-04-18T12:37:48.181Z,5.80
2023-04-18T12:40:16.061Z,7.35
2023-04-18T12:42:42.967Z,7.65
2023-04-18T12:45:10.754Z,6.90
2023-04-18T12:47:38.689Z,7.07
2023-04-18T12:50:07.295Z,8.02
2023-04-18T12:52:38.544Z,6.80
2023-04-18T12:55:07.083Z,6.60
2023-04-18T12:57:36.220Z,7.22
2023-04-18T13:00:06.406Z,6.65
2023-04-18T13:02:35.470Z,10.05
2023-04-18T13:05:02.570Z,8.05
2023-04-18T13:07:29.776Z,7.88
2023-04-18T13:09:57.887Z,7.35
2023-04-18T13:12:24.684Z,7.95
2023-04-18T13:14:51.469Z,7.47
2023-04-18T13:17:18.349Z,7.22
2023-04-18T13:19:46.742Z,7.38
2023-04-18T13:22:13.485Z,8.35
2023-04-18T13:24:40.419Z,7.20
2023-04-18T13:27:10.577Z,8.48
2023-04-18T13:29:39.142Z,7.15
2023-04-18T13:32:06.495Z,7.35
2023-04-18T13:34:34.858Z,8.50
2023-04-18T13:37:01.656Z,8.43
2023-04-18T13:39:29.166Z,8.10
2023-04-18T13:41:56.567Z,8.10
2023-04-18T13:44:27.708Z,9.75
2023-04-18T13:46:57.036Z,7.30
2023-04-18T13:49:23.823Z,9.18
2023-04-18T13:51:53.475Z,8.60
2023-04-18T13:54:20.347Z,7.63
2023-04-18T13:56:47.100Z,9.10
2023-04-18T13:59:14.324Z,7.95
2023-04-18T14:01:42.897Z,7.78
2023-04-18T14:04:10.059Z,8.27
2023-04-18T14:06:38.214Z,7.90
2023-04-18T14:09:05.045Z,6.93
2023-04-18T14:11:31.832Z,7.50
2023-04-18T14:13:58.568Z,7.88
2023-04-18T14:16:25.678Z,8.77
2023-04-18T14:18:54.240Z,7.72
2023-04-18T14:21:21.258Z,8.05
2023-04-18T14:23:48.205Z,7.35
2023-04-18T14:26:14.963Z,8.43
2023-04-18T14:28:41.821Z,8.25
2023-04-18T14:31:08.695Z,8.48
2023-04-18T14:33:35.796Z,8.07
2023-04-18T14:36:09.342Z,7.57
2023-04-18T14:38:36.596Z,8.30
2023-04-18T14:41:04.384Z,6.63
2023-04-18T14:43:31.221Z,7.55
2023-04-18T14:45:59.547Z,7.70
2023-04-18T14:48:27.147Z,6.97
2023-04-18T14:50:57.286Z,7.47
2023-04-18T14:53:27.455Z,7.60
2023-04-18T14:55:54.325Z,8.27
2023-04-18T14:58:21.209Z,6.38
2023-04-18T15:00:49.233Z,6.45
2023-04-18T15:03:16.892Z,7.15
2023-04-18T15:05:46.657Z,7.82
2023-04-18T15:08:14.638Z,6.93
2023-04-18T15:10:44.593Z,6.95
2023-04-18T15:13:11.646Z,8.48
2023-04-18T15:15:39.771Z,7.38
2023-04-18T15:18:07.759Z,7.60
2023-04-18T15:20:36.179Z,6.53
2023-04-18T15:23:04.203Z,7.85
2023-04-18T15:25:31.121Z,7.57
2023-04-18T15:27:59.325Z,7.63
2023-04-18T15:30:26.457Z,7.47
2023-04-18T15:32:54.735Z,6.63
2023-04-18T15:35:21.949Z,6.97
2023-04-18T15:37:49.354Z,6.88
2023-04-18T15:40:18.232Z,7.10
2023-04-18T15:42:49.644Z,7.10
2023-04-18T15:45:20.126Z,6.13
2023-04-18T15:47:47.066Z,7.28
2023-04-18T15:50:17.050Z,5.13
2023-04-18T15:52:46.354Z,5.82
2023-04-18T15:55:13.729Z,7.78
2023-04-18T15:57:41.654Z,7.43
2023-04-18T16:00:15.901Z,7.78
2023-04-18T16:02:45.228Z,6.20
2023-04-18T16:05:13.098Z,5.93
2023-04-18T16:07:40.166Z,6.18
2023-04-18T16:10:10.168Z,6.57
2023-04-18T16:12:37.996Z,6.22
2023-04-18T16:15:06.687Z,5.97
2023-04-18T16:17:33.810Z,5.78
2023-04-18T16:20:02.391Z,6.68
2023-04-18T16:22:29.371Z,7.18
2023-04-18T16:24:56.240Z,6.80
2023-04-18T16:27:23.061Z,6.28
2023-04-18T16:29:50.254Z,6.22
2023-04-18T16:32:17.241Z,7.28
2023-04-18T16:34:44.273Z,4.95
2023-04-18T16:37:12.537Z,5.25
2023-04-18T16:39:39.280Z,6.00
2023-04-18T16:42:06.188Z,6.53
2023-04-18T16:44:33.379Z,5.50
2023-04-18T16:47:00.443Z,6.13
2023-04-18T16:49:27.375Z,6.35
2023-04-18T16:51:54.279Z,6.45
2023-04-18T16:54:22.587Z,6.40
2023-04-18T16:56:49.341Z,7.38
2023-04-18T16:59:16.302Z,5.72
2023-04-18T17:01:43.027Z,6.22
2023-04-18T17:04:09.794Z,5.88
2023-04-18T17:06:36.804Z,5.57
2023-04-18T17:09:06.405Z,6.32
2023-04-18T17:11:39.576Z,5.82
2023-04-18T17:14:07.687Z,6.22
2023-04-18T17:16:35.120Z,5.07
2023-04-18T17:19:02.002Z,4.78
2023-04-18T17:21:28.876Z,5.18
2023-04-18T17:23:56.419Z,5.60
2023-04-18T17:26:24.394Z,5.72
2023-04-18T17:28:52.663Z,5.55
2023-04-18T17:31:19.601Z,6.70
2023-04-18T17:33:46.315Z,5.72
2023-04-18T17:36:13.156Z,5.35
2023-04-18T17:38:40.674Z,4.75
2023-04-18T17:41:07.918Z,5.85
2023-04-18T17:43:34.655Z,4.75
2023-04-18T17:46:03.868Z,5.07
2023-04-18T17:48:30.844Z,4.45
2023-04-18T17:50:57.633Z,5.18
2023-04-18T17:53:25.693Z,5.00
2023-04-18T17:55:52.585Z,4.40
2023-04-18T17:58:19.921Z,6.00
2023-04-18T18:00:46.902Z,5.32
2023-04-18T18:03:15.389Z,4.47
2023-04-18T18:05:45.466Z,4.50
2023-04-18T18:08:12.306Z,4.70
2023-04-18T18:10:39.562Z,5.03
2023-04-18T18:16:54.183Z,5.05
2023-04-18T18:19:22.452Z,5.07
2023-04-18T18:21:49.213Z,5.72
2023-04-18T18:24:16.290Z,5.35
2023-04-18T18:26:43.133Z,4.88
2023-04-18T18:29:11.147Z,4.68
2023-04-18T18:31:38.669Z,4.55
2023-04-18T18:34:06.094Z,4.82
2023-04-18T18:36:34.310Z,6.13
2023-04-18T18:39:00.999Z,4.18
2023-04-18T18:41:27.819Z,5.10
2023-04-18T18:43:54.610Z,5.78
2023-04-18T18:46:21.467Z,5.07
2023-04-18T18:48:49.775Z,5.28
2023-04-18T18:51:18.501Z,4.47
2023-04-18T18:53:47.171Z,6.32
2023-04-18T18:56:14.617Z,4.50
2023-04-18T18:58:43.849Z,5.25
2023-04-18T19:01:11.616Z,5.20
2023-04-18T19:03:38.549Z,4.22
2023-04-18T19:06:07.268Z,5.30
2023-04-18T19:08:34.233Z,4.75
2023-04-18T19:11:02.396Z,5.97
2023-04-18T19:13:29.221Z,3.95
2023-04-18T19:15:56.034Z,3.70
2023-04-18T19:18:22.967Z,4.35
2023-04-18T19:20:50.581Z,4.20
2023-04-18T19:23:17.621Z,6.03
2023-04-18T19:25:44.968Z,3.72
2023-04-18T19:28:14.431Z,4.32
2023-04-18T19:30:42.417Z,3.75
2023-04-18T19:33:09.432Z,3.95
2023-04-18T19:35:37.921Z,4.63
2023-04-18T19:38:07.932Z,3.97
2023-04-18T19:40:34.687Z,4.32
2023-04-18T19:43:01.443Z,3.63
2023-04-18T19:45:30.473Z,5.22
2023-04-18T19:47:57.350Z,3.58
2023-04-18T19:50:24.498Z,4.13
2023-04-18T19:52:51.320Z,3.47
2023-04-18T19:55:18.010Z,4.03
2023-04-18T19:57:44.948Z,3.97
2023-04-18T20:00:13.074Z,4.22
2023-04-18T20:02:41.613Z,3.85
2023-04-18T20:05:09.754Z,4.50
2023-04-18T20:07:36.920Z,4.30
2023-04-18T20:10:04.530Z,4.65
2023-04-18T20:12:31.524Z,4.25
2023-04-18T20:14:59.015Z,3.55
2023-04-18T20:17:26.266Z,3.67
2023-04-18T20:19:57.130Z,4.47
2023-04-18T20:22:26.042Z,3.88
2023-04-18T20:24:53.084Z,5.43
2023-04-18T20:27:23.040Z,4.50
2023-04-18T20:29:50.021Z,4.72
2023-04-18T20:32:17.003Z,3.75
2023-04-18T20:34:43.670Z,5.72
2023-04-18T20:37:11.866Z,5.22
2023-04-18T20:39:39.903Z,4.55
2023-04-18T20:42:07.015Z,4.97
2023-04-18T20:44:35.163Z,4.50
2023-04-18T20:47:02.368Z,4.25
2023-04-18T20:49:29.675Z,4.20
2023-04-18T20:51:56.533Z,5.93
2023-04-18T20:54:26.280Z,4.95
2023-04-18T20:56:52.979Z,5.45
2023-04-18T20:59:19.725Z,6.65
2023-04-18T21:01:47.929Z,4.70
2023-04-18T21:04:15.181Z,4.78
2023-04-18T21:06:42.744Z,5.13
2023-04-18T21:09:09.544Z,4.30
2023-04-18T21:11:38.449Z,6.82
2023-04-18T21:14:06.742Z,4.63
2023-04-18T21:16:33.802Z,6.07
2023-04-18T21:19:00.585Z,5.40
2023-04-18T21:21:27.610Z,6.00
2023-04-18T21:23:54.259Z,4.60
2023-04-18T21:26:21.037Z,4.20
2023-04-18T21:28:59.796Z,5.53
2023-04-18T21:31:29.081Z,5.25
2023-04-18T21:33:57.323Z,5.90
2023-04-18T21:36:29.272Z,4.63
2023-04-18T21:38:57.100Z,4.40
2023-04-18T21:41:25.602Z,4.80
2023-04-18T21:43:54.135Z,4.97
2023-04-18T21:46:22.782Z,5.65
2023-04-18T21:48:49.675Z,4.72
2023-04-18T21:51:17.342Z,5.07
2023-04-18T21:53:44.202Z,4.43
2023-04-18T21:56:11.530Z,3.55
2023-04-18T21:58:38.585Z,4.35
2023-04-18T22:01:05.570Z,4.20
2023-04-18T22:03:34.316Z,4.20
2023-04-18T22:06:02.040Z,3.92
2023-04-18T22:08:29.611Z,4.55
2023-04-18T22:10:58.974Z,4.50
2023-04-18T22:13:30.128Z,4.80
2023-04-18T22:15:58.309Z,5.53
2023-04-18T22:18:25.339Z,4.85
2023-04-18T22:20:53.906Z,3.97
2023-04-18T22:23:20.687Z,5.43
2023-04-18T22:25:48.880Z,5.90
2023-04-18T22:28:16.238Z,3.88
2023-04-18T22:30:43.131Z,3.75
2023-04-18T22:33:11.559Z,5.38
2023-04-18T22:35:38.386Z,5.15
2023-04-18T22:38:06.876Z,5.47
2023-04-18T22:40:33.607Z,5.22
2023-04-18T22:43:00.475Z,5.05
2023-04-18T22:45:27.332Z,5.03
2023-04-18T22:47:54.756Z,4.50
2023-04-18T22:50:21.895Z,4.00
2023-04-18T22:52:48.642Z,6.40
2023-04-18T22:55:19.935Z,4.50
2023-04-18T22:57:46.870Z,4.15
2023-04-18T23:00:14.946Z,5.40
2023-04-18T23:02:41.937Z,4.47
2023-04-18T23:05:10.854Z,4.45
2023-04-18T23:07:37.755Z,3.80
2023-04-18T23:10:06.468Z,5.70
2023-04-18T23:12:34.656Z,4.68
2023-04-18T23:15:01.433Z,5.05
2023-04-18T23:17:28.223Z,6.68
2023-04-18T23:19:55.027Z,5.55
2023-04-18T23:22:24.542Z,5.72
2023-04-18T23:24:51.624Z,5.32
2023-04-18T23:27:18.899Z,5.95
2023-04-18T23:29:55.880Z,6.38
2023-04-18T23:32:23.310Z,6.03
2023-04-18T23:34:50.182Z,5.97
2023-04-18T23:37:17.189Z,5.53
2023-04-18T23:39:44.229Z,4.28
2023-04-18T23:42:11.048Z,6.32
2023-04-18T23:44:38.982Z,6.35
2023-04-18T23:47:07.335Z,5.40
2023-04-18T23:49:37.177Z,6.75
2023-04-18T23:52:04.436Z,4.60
2023-04-18T23:54:31.221Z,5.35
2023-04-18T23:56:58.244Z,5.15
2023-04-18T23:59:25.080Z,4.80
